sensor_id;sensor_type;location;lat;lon;timestamp;temperature;humidity
52016;DHT22;38032;53.326;6.472;2024-03-17T00:02:22;6.80;99.90
52016;DHT22;38032;53.326;6.472;2024-03-17T00:04:48;6.80;99.90
52016;DHT22;38032;53.326;6.472;2024-03-17T00:07:14;6.70;99.90
52016;DHT22;38032;53.326;6.472;2024-03-17T00:09:41;6.70;99.90
52016;DHT22;38032;53.326;6.472;2024-03-17T00:12:07;6.70;99.90
52016;DHT22;38032;53.326;6.472;2024-03-17T00:14:34;6.60;99.90
52016;DHT22;38032;53.326;6.472;2024-03-17T00:17:01;6.70;99.90
52016;DHT22;38032;53.326;6.472;2024-03-17T00:21:53;6.50;99.90
52016;DHT22;38032;53.326;6.472;2024-03-17T00:24:19;6.50;99.90
52016;DHT22;38032;53.326;6.472;2024-03-17T00:26:46;6.70;99.90
52016;DHT22;38032;53.326;6.472;2024-03-17T00:29:12;6.50;99.90
52016;DHT22;38032;53.326;6.472;2024-03-17T00:31:38;6.50;99.90
52016;DHT22;38032;53.326;6.472;2024-03-17T00:34:03;6.60;99.90
52016;DHT22;38032;53.326;6.472;2024-03-17T00:36:30;6.60;99.90
52016;DHT22;38032;53.326;6.472;2024-03-17T00:38:56;6.60;99.90
52016;DHT22;38032;53.326;6.472;2024-03-17T00:41:22;6.50;99.90
52016;DHT22;38032;53.326;6.472;2024-03-17T00:43:49;6.60;99.90
52016;DHT22;38032;53.326;6.472;2024-03-17T00:46:16;6.50;99.90
52016;DHT22;38032;53.326;6.472;2024-03-17T00:48:43;6.40;99.90
52016;DHT22;38032;53.326;6.472;2024-03-17T00:51:12;6.30;99.90
52016;DHT22;38032;53.326;6.472;2024-03-17T00:53:37;6.30;99.90
52016;DHT22;38032;53.326;6.472;2024-03-17T00:56:03;6.40;99.90
52016;DHT22;38032;53.326;6.472;2024-03-17T00:58:30;6.10;99.90
52016;DHT22;38032;53.326;6.472;2024-03-17T01:00:56;6.10;99.90
52016;DHT22;38032;53.326;6.472;2024-03-17T01:03:21;5.90;99.90
52016;DHT22;38032;53.326;6.472;2024-03-17T01:05:47;5.90;99.90
52016;DHT22;38032;53.326;6.472;2024-03-17T01:08:16;5.80;99.90
52016;DHT22;38032;53.326;6.472;2024-03-17T01:10:42;5.70;99.90
52016;DHT22;38032;53.326;6.472;2024-03-17T01:13:09;5.60;99.90
52016;DHT22;38032;53.326;6.472;2024-03-17T01:15:36;5.60;99.90
52016;DHT22;38032;53.326;6.472;2024-03-17T01:18:04;5.50;99.90
52016;DHT22;38032;53.326;6.472;2024-03-17T01:20:35;5.40;99.90
52016;DHT22;38032;53.326;6.472;2024-03-17T01:23:01;5.40;99.90
52016;DHT22;38032;53.326;6.472;2024-03-17T01:25:27;5.30;99.90
52016;DHT22;38032;53.326;6.472;2024-03-17T01:27:55;5.20;99.90
52016;DHT22;38032;53.326;6.472;2024-03-17T01:30:22;5.20;99.90
52016;DHT22;38032;53.326;6.472;2024-03-17T01:32:49;5.10;99.90
52016;DHT22;38032;53.326;6.472;2024-03-17T01:35:14;5.00;99.90
52016;DHT22;38032;53.326;6.472;2024-03-17T01:37:41;5.00;99.90
52016;DHT22;38032;53.326;6.472;2024-03-17T01:40:07;4.90;99.90
52016;DHT22;38032;53.326;6.472;2024-03-17T01:42:35;4.90;99.90
52016;DHT22;38032;53.326;6.472;2024-03-17T01:45:20;4.90;99.90
52016;DHT22;38032;53.326;6.472;2024-03-17T01:47:46;4.80;99.90
52016;DHT22;38032;53.326;6.472;2024-03-17T01:50:12;4.70;99.90
52016;DHT22;38032;53.326;6.472;2024-03-17T01:52:39;4.70;99.90
52016;DHT22;38032;53.326;6.472;2024-03-17T01:55:05;4.70;99.90
52016;DHT22;38032;53.326;6.472;2024-03-17T01:57:31;4.70;99.90
52016;DHT22;38032;53.326;6.472;2024-03-17T01:59:58;4.70;99.90
52016;DHT22;38032;53.326;6.472;2024-03-17T02:02:24;4.60;99.90
52016;DHT22;38032;53.326;6.472;2024-03-17T02:04:50;4.60;99.90
52016;DHT22;38032;53.326;6.472;2024-03-17T02:07:16;4.60;99.90
52016;DHT22;38032;53.326;6.472;2024-03-17T02:09:42;4.70;99.90
52016;DHT22;38032;53.326;6.472;2024-03-17T02:12:09;4.60;99.90
52016;DHT22;38032;53.326;6.472;2024-03-17T02:14:37;4.70;99.90
52016;DHT22;38032;53.326;6.472;2024-03-17T02:17:03;4.70;99.90
52016;DHT22;38032;53.326;6.472;2024-03-17T02:19:29;4.70;99.90
52016;DHT22;38032;53.326;6.472;2024-03-17T02:21:55;4.70;99.90
52016;DHT22;38032;53.326;6.472;2024-03-17T02:24:21;4.70;99.90
52016;DHT22;38032;53.326;6.472;2024-03-17T02:26:47;4.70;99.90
52016;DHT22;38032;53.326;6.472;2024-03-17T02:29:13;4.60;99.90
52016;DHT22;38032;53.326;6.472;2024-03-17T02:31:38;4.60;99.90
52016;DHT22;38032;53.326;6.472;2024-03-17T02:34:04;4.60;99.90
52016;DHT22;38032;53.326;6.472;2024-03-17T02:39:44;4.50;99.90
52016;DHT22;38032;53.326;6.472;2024-03-17T02:42:10;4.50;99.90
52016;DHT22;38032;53.326;6.472;2024-03-17T02:44:38;4.50;99.90
52016;DHT22;38032;53.326;6.472;2024-03-17T02:47:06;4.50;99.90
52016;DHT22;38032;53.326;6.472;2024-03-17T02:49:40;4.50;99.90
52016;DHT22;38032;53.326;6.472;2024-03-17T02:52:10;4.50;99.90
52016;DHT22;38032;53.326;6.472;2024-03-17T02:54:37;4.50;99.90
52016;DHT22;38032;53.326;6.472;2024-03-17T02:57:04;4.50;99.90
52016;DHT22;38032;53.326;6.472;2024-03-17T02:59:30;4.50;99.90
52016;DHT22;38032;53.326;6.472;2024-03-17T03:01:56;4.50;99.90
52016;DHT22;38032;53.326;6.472;2024-03-17T03:04:22;4.50;99.90
52016;DHT22;38032;53.326;6.472;2024-03-17T03:06:48;4.50;99.90
52016;DHT22;38032;53.326;6.472;2024-03-17T03:09:14;4.60;99.90
52016;DHT22;38032;53.326;6.472;2024-03-17T03:11:46;4.60;99.90
52016;DHT22;38032;53.326;6.472;2024-03-17T03:14:12;4.70;99.90
52016;DHT22;38032;53.326;6.472;2024-03-17T03:16:39;4.70;99.90
52016;DHT22;38032;53.326;6.472;2024-03-17T03:19:04;4.70;99.90
52016;DHT22;38032;53.326;6.472;2024-03-17T03:21:31;4.70;99.90
52016;DHT22;38032;53.326;6.472;2024-03-17T03:23:57;4.70;99.90
52016;DHT22;38032;53.326;6.472;2024-03-17T03:26:23;4.70;99.90
52016;DHT22;38032;53.326;6.472;2024-03-17T03:28:49;4.70;99.90
52016;DHT22;38032;53.326;6.472;2024-03-17T03:31:15;4.70;99.90
52016;DHT22;38032;53.326;6.472;2024-03-17T03:33:43;4.70;99.90
52016;DHT22;38032;53.326;6.472;2024-03-17T03:36:13;4.70;99.90
52016;DHT22;38032;53.326;6.472;2024-03-17T03:38:40;4.70;99.90
52016;DHT22;38032;53.326;6.472;2024-03-17T03:41:07;4.80;99.90
52016;DHT22;38032;53.326;6.472;2024-03-17T03:43:33;4.70;99.90
52016;DHT22;38032;53.326;6.472;2024-03-17T03:46:00;4.70;99.90
52016;DHT22;38032;53.326;6.472;2024-03-17T03:48:25;4.70;99.90
52016;DHT22;38032;53.326;6.472;2024-03-17T03:50:51;4.70;99.90
52016;DHT22;38032;53.326;6.472;2024-03-17T03:53:17;4.70;99.90
52016;DHT22;38032;53.326;6.472;2024-03-17T03:55:43;4.70;99.90
52016;DHT22;38032;53.326;6.472;2024-03-17T03:58:09;4.70;99.90
52016;DHT22;38032;53.326;6.472;2024-03-17T04:00:34;4.80;99.90
52016;DHT22;38032;53.326;6.472;2024-03-17T04:03:01;4.80;99.90
52016;DHT22;38032;53.326;6.472;2024-03-17T04:05:27;4.80;99.90
52016;DHT22;38032;53.326;6.472;2024-03-17T04:07:54;4.80;99.90
52016;DHT22;38032;53.326;6.472;2024-03-17T04:10:19;4.90;99.90
52016;DHT22;38032;53.326;6.472;2024-03-17T04:12:46;4.90;99.90
52016;DHT22;38032;53.326;6.472;2024-03-17T04:15:12;4.90;99.90
52016;DHT22;38032;53.326;6.472;2024-03-17T04:17:38;4.90;99.90
52016;DHT22;38032;53.326;6.472;2024-03-17T04:20:04;5.00;99.90
52016;DHT22;38032;53.326;6.472;2024-03-17T04:22:34;5.00;99.90
52016;DHT22;38032;53.326;6.472;2024-03-17T04:25:00;5.10;99.90
52016;DHT22;38032;53.326;6.472;2024-03-17T04:27:27;5.30;99.90
52016;DHT22;38032;53.326;6.472;2024-03-17T04:29:54;5.30;99.90
52016;DHT22;38032;53.326;6.472;2024-03-17T04:32:21;5.20;99.90
52016;DHT22;38032;53.326;6.472;2024-03-17T04:34:47;5.30;99.90
52016;DHT22;38032;53.326;6.472;2024-03-17T04:37:13;5.30;99.90
52016;DHT22;38032;53.326;6.472;2024-03-17T04:39:40;5.40;99.90
52016;DHT22;38032;53.326;6.472;2024-03-17T04:42:09;5.40;99.90
52016;DHT22;38032;53.326;6.472;2024-03-17T04:44:35;5.40;99.90
52016;DHT22;38032;53.326;6.472;2024-03-17T04:47:01;5.40;99.90
52016;DHT22;38032;53.326;6.472;2024-03-17T04:49:36;5.40;99.90
52016;DHT22;38032;53.326;6.472;2024-03-17T04:52:01;5.40;99.90
52016;DHT22;38032;53.326;6.472;2024-03-17T04:54:27;5.40;99.90
52016;DHT22;38032;53.326;6.472;2024-03-17T04:56:53;5.40;99.90
52016;DHT22;38032;53.326;6.472;2024-03-17T04:59:19;5.40;99.90
52016;DHT22;38032;53.326;6.472;2024-03-17T05:01:45;5.50;99.90
52016;DHT22;38032;53.326;6.472;2024-03-17T05:04:11;5.40;99.90
52016;DHT22;38032;53.326;6.472;2024-03-17T05:06:37;5.40;99.90
52016;DHT22;38032;53.326;6.472;2024-03-17T05:09:03;5.40;99.90
52016;DHT22;38032;53.326;6.472;2024-03-17T05:11:30;5.40;99.90
52016;DHT22;38032;53.326;6.472;2024-03-17T05:13:57;5.40;99.90
52016;DHT22;38032;53.326;6.472;2024-03-17T05:16:23;5.40;99.90
52016;DHT22;38032;53.326;6.472;2024-03-17T05:18:49;5.40;99.90
52016;DHT22;38032;53.326;6.472;2024-03-17T05:21:15;5.40;99.90
52016;DHT22;38032;53.326;6.472;2024-03-17T05:23:41;5.30;99.90
52016;DHT22;38032;53.326;6.472;2024-03-17T05:26:07;5.40;99.90
52016;DHT22;38032;53.326;6.472;2024-03-17T05:28:33;5.40;99.90
52016;DHT22;38032;53.326;6.472;2024-03-17T05:30:59;5.40;99.90
52016;DHT22;38032;53.326;6.472;2024-03-17T05:33:26;5.50;99.90
52016;DHT22;38032;53.326;6.472;2024-03-17T05:35:57;5.50;99.90
52016;DHT22;38032;53.326;6.472;2024-03-17T05:38:24;5.50;99.90
52016;DHT22;38032;53.326;6.472;2024-03-17T05:40:56;5.50;99.90
52016;DHT22;38032;53.326;6.472;2024-03-17T05:43:23;5.50;99.90
52016;DHT22;38032;53.326;6.472;2024-03-17T05:45:51;5.50;99.90
52016;DHT22;38032;53.326;6.472;2024-03-17T05:48:17;5.50;99.90
52016;DHT22;38032;53.326;6.472;2024-03-17T05:50:43;5.50;99.90
52016;DHT22;38032;53.326;6.472;2024-03-17T05:53:09;5.50;99.90
52016;DHT22;38032;53.326;6.472;2024-03-17T05:55:35;5.50;99.90
52016;DHT22;38032;53.326;6.472;2024-03-17T05:58:02;5.50;99.90
52016;DHT22;38032;53.326;6.472;2024-03-17T06:00:28;5.50;99.90
52016;DHT22;38032;53.326;6.472;2024-03-17T06:02:55;5.40;99.90
52016;DHT22;38032;53.326;6.472;2024-03-17T06:05:20;5.40;99.90
52016;DHT22;38032;53.326;6.472;2024-03-17T06:07:46;5.40;99.90
52016;DHT22;38032;53.326;6.472;2024-03-17T06:10:12;5.40;99.90
52016;DHT22;38032;53.326;6.472;2024-03-17T06:12:38;5.40;99.90
52016;DHT22;38032;53.326;6.472;2024-03-17T06:15:04;5.40;99.90
52016;DHT22;38032;53.326;6.472;2024-03-17T06:17:31;5.50;99.90
52016;DHT22;38032;53.326;6.472;2024-03-17T06:19:57;5.50;99.90
52016;DHT22;38032;53.326;6.472;2024-03-17T06:22:23;5.60;99.90
52016;DHT22;38032;53.326;6.472;2024-03-17T06:24:50;5.60;99.90
52016;DHT22;38032;53.326;6.472;2024-03-17T06:27:16;5.60;99.90
52016;DHT22;38032;53.326;6.472;2024-03-17T06:29:42;5.70;99.90
52016;DHT22;38032;53.326;6.472;2024-03-17T06:32:08;5.70;99.90
52016;DHT22;38032;53.326;6.472;2024-03-17T06:34:34;5.80;99.90
52016;DHT22;38032;53.326;6.472;2024-03-17T06:37:00;5.80;99.90
52016;DHT22;38032;53.326;6.472;2024-03-17T06:39:26;5.80;99.90
52016;DHT22;38032;53.326;6.472;2024-03-17T06:41:52;5.80;99.90
52016;DHT22;38032;53.326;6.472;2024-03-17T06:44:18;5.80;99.90
52016;DHT22;38032;53.326;6.472;2024-03-17T06:46:45;5.80;99.90
52016;DHT22;38032;53.326;6.472;2024-03-17T06:49:12;5.90;99.90
52016;DHT22;38032;53.326;6.472;2024-03-17T06:51:38;5.90;99.90
52016;DHT22;38032;53.326;6.472;2024-03-17T06:54:04;6.00;99.90
52016;DHT22;38032;53.326;6.472;2024-03-17T06:56:30;6.10;99.90
52016;DHT22;38032;53.326;6.472;2024-03-17T06:58:58;6.20;99.90
52016;DHT22;38032;53.326;6.472;2024-03-17T07:01:24;6.30;99.90
52016;DHT22;38032;53.326;6.472;2024-03-17T07:03:49;6.40;99.90
52016;DHT22;38032;53.326;6.472;2024-03-17T07:06:15;6.40;99.90
52016;DHT22;38032;53.326;6.472;2024-03-17T07:08:41;6.50;99.90
52016;DHT22;38032;53.326;6.472;2024-03-17T07:11:08;6.60;99.90
52016;DHT22;38032;53.326;6.472;2024-03-17T07:13:35;6.70;99.90
52016;DHT22;38032;53.326;6.472;2024-03-17T07:16:02;6.80;99.90
52016;DHT22;38032;53.326;6.472;2024-03-17T07:18:29;6.80;99.90
52016;DHT22;38032;53.326;6.472;2024-03-17T07:20:57;6.90;99.90
52016;DHT22;38032;53.326;6.472;2024-03-17T07:23:24;7.00;99.90
52016;DHT22;38032;53.326;6.472;2024-03-17T07:25:54;7.00;99.90
52016;DHT22;38032;53.326;6.472;2024-03-17T07:28:21;7.10;99.90
52016;DHT22;38032;53.326;6.472;2024-03-17T07:30:53;7.10;99.90
52016;DHT22;38032;53.326;6.472;2024-03-17T07:33:19;7.20;99.90
52016;DHT22;38032;53.326;6.472;2024-03-17T07:35:49;7.20;99.90
52016;DHT22;38032;53.326;6.472;2024-03-17T07:38:15;7.20;99.90
52016;DHT22;38032;53.326;6.472;2024-03-17T07:40:42;7.30;99.90
52016;DHT22;38032;53.326;6.472;2024-03-17T07:43:08;7.40;99.90
52016;DHT22;38032;53.326;6.472;2024-03-17T07:45:34;7.40;99.90
52016;DHT22;38032;53.326;6.472;2024-03-17T07:48:00;7.50;99.90
52016;DHT22;38032;53.326;6.472;2024-03-17T07:50:26;7.50;99.90
52016;DHT22;38032;53.326;6.472;2024-03-17T07:52:52;7.60;99.90
52016;DHT22;38032;53.326;6.472;2024-03-17T07:55:18;7.60;99.90
52016;DHT22;38032;53.326;6.472;2024-03-17T07:57:44;7.70;99.90
52016;DHT22;38032;53.326;6.472;2024-03-17T08:00:10;7.70;99.90
52016;DHT22;38032;53.326;6.472;2024-03-17T08:02:44;7.70;99.90
52016;DHT22;38032;53.326;6.472;2024-03-17T08:05:10;7.70;99.90
52016;DHT22;38032;53.326;6.472;2024-03-17T08:07:36;7.70;99.90
52016;DHT22;38032;53.326;6.472;2024-03-17T08:10:02;7.80;99.90
52016;DHT22;38032;53.326;6.472;2024-03-17T08:12:29;7.90;99.90
52016;DHT22;38032;53.326;6.472;2024-03-17T08:14:55;7.90;99.90
52016;DHT22;38032;53.326;6.472;2024-03-17T08:17:21;8.00;99.90
52016;DHT22;38032;53.326;6.472;2024-03-17T08:19:47;8.00;99.90
52016;DHT22;38032;53.326;6.472;2024-03-17T08:22:14;8.10;99.90
52016;DHT22;38032;53.326;6.472;2024-03-17T08:24:40;8.20;99.90
52016;DHT22;38032;53.326;6.472;2024-03-17T08:27:06;8.30;99.90
52016;DHT22;38032;53.326;6.472;2024-03-17T08:29:32;8.40;99.90
52016;DHT22;38032;53.326;6.472;2024-03-17T08:31:58;8.60;99.90
52016;DHT22;38032;53.326;6.472;2024-03-17T08:34:25;8.60;99.90
52016;DHT22;38032;53.326;6.472;2024-03-17T08:36:50;8.70;99.90
52016;DHT22;38032;53.326;6.472;2024-03-17T08:39:16;8.80;99.90
52016;DHT22;38032;53.326;6.472;2024-03-17T08:41:42;8.80;99.90
52016;DHT22;38032;53.326;6.472;2024-03-17T08:44:10;8.90;99.90
52016;DHT22;38032;53.326;6.472;2024-03-17T08:46:35;9.00;99.90
52016;DHT22;38032;53.326;6.472;2024-03-17T08:49:01;9.00;99.90
52016;DHT22;38032;53.326;6.472;2024-03-17T08:51:27;9.10;99.90
52016;DHT22;38032;53.326;6.472;2024-03-17T08:53:54;9.10;99.90
52016;DHT22;38032;53.326;6.472;2024-03-17T08:56:19;9.20;99.90
52016;DHT22;38032;53.326;6.472;2024-03-17T08:58:48;9.20;99.90
52016;DHT22;38032;53.326;6.472;2024-03-17T09:01:15;9.40;99.90
52016;DHT22;38032;53.326;6.472;2024-03-17T09:03:42;9.50;99.90
52016;DHT22;38032;53.326;6.472;2024-03-17T09:06:16;9.60;99.90
52016;DHT22;38032;53.326;6.472;2024-03-17T09:08:42;9.60;99.90
52016;DHT22;38032;53.326;6.472;2024-03-17T09:11:12;9.70;99.90
52016;DHT22;38032;53.326;6.472;2024-03-17T09:13:38;9.80;99.90
52016;DHT22;38032;53.326;6.472;2024-03-17T09:16:04;9.90;99.90
52016;DHT22;38032;53.326;6.472;2024-03-17T09:18:31;10.00;99.90
52016;DHT22;38032;53.326;6.472;2024-03-17T09:23:24;10.20;99.90
52016;DHT22;38032;53.326;6.472;2024-03-17T09:26:02;10.20;99.90
52016;DHT22;38032;53.326;6.472;2024-03-17T09:28:29;10.20;99.90
52016;DHT22;38032;53.326;6.472;2024-03-17T09:30:56;10.30;99.90
52016;DHT22;38032;53.326;6.472;2024-03-17T09:33:23;10.40;99.90
52016;DHT22;38032;53.326;6.472;2024-03-17T09:35:53;10.50;99.90
52016;DHT22;38032;53.326;6.472;2024-03-17T09:38:20;10.60;99.90
52016;DHT22;38032;53.326;6.472;2024-03-17T09:40:47;10.70;99.90
52016;DHT22;38032;53.326;6.472;2024-03-17T09:43:15;10.90;99.90
52016;DHT22;38032;53.326;6.472;2024-03-17T09:45:41;11.00;99.90
52016;DHT22;38032;53.326;6.472;2024-03-17T09:48:07;11.10;99.90
52016;DHT22;38032;53.326;6.472;2024-03-17T09:50:38;11.10;99.90
52016;DHT22;38032;53.326;6.472;2024-03-17T09:53:05;11.00;99.90
52016;DHT22;38032;53.326;6.472;2024-03-17T09:55:31;11.00;99.90
52016;DHT22;38032;53.326;6.472;2024-03-17T09:57:56;11.00;99.90
52016;DHT22;38032;53.326;6.472;2024-03-17T10:00:22;11.10;99.90
52016;DHT22;38032;53.326;6.472;2024-03-17T10:02:48;11.00;99.90
52016;DHT22;38032;53.326;6.472;2024-03-17T10:05:22;11.10;99.90
52016;DHT22;38032;53.326;6.472;2024-03-17T10:07:49;11.00;99.90
52016;DHT22;38032;53.326;6.472;2024-03-17T10:10:15;11.00;99.90
52016;DHT22;38032;53.326;6.472;2024-03-17T10:12:44;10.90;99.90
52016;DHT22;38032;53.326;6.472;2024-03-17T10:15:14;10.80;99.90
52016;DHT22;38032;53.326;6.472;2024-03-17T10:17:40;10.80;99.90
52016;DHT22;38032;53.326;6.472;2024-03-17T10:20:20;10.70;99.90
52016;DHT22;38032;53.326;6.472;2024-03-17T10:23:01;10.60;99.90
52016;DHT22;38032;53.326;6.472;2024-03-17T10:25:28;10.50;99.90
52016;DHT22;38032;53.326;6.472;2024-03-17T10:27:55;10.50;99.90
52016;DHT22;38032;53.326;6.472;2024-03-17T10:30:23;10.50;99.90
52016;DHT22;38032;53.326;6.472;2024-03-17T10:32:53;10.50;99.90
52016;DHT22;38032;53.326;6.472;2024-03-17T10:35:31;10.60;99.90
52016;DHT22;38032;53.326;6.472;2024-03-17T10:37:59;10.60;99.90
52016;DHT22;38032;53.326;6.472;2024-03-17T10:40:27;10.70;99.90
52016;DHT22;38032;53.326;6.472;2024-03-17T10:42:53;10.60;99.90
52016;DHT22;38032;53.326;6.472;2024-03-17T10:45:19;10.60;99.90
52016;DHT22;38032;53.326;6.472;2024-03-17T10:47:49;10.70;99.90
52016;DHT22;38032;53.326;6.472;2024-03-17T10:50:18;10.70;99.90
52016;DHT22;38032;53.326;6.472;2024-03-17T10:52:46;10.70;99.90
52016;DHT22;38032;53.326;6.472;2024-03-17T10:55:20;10.70;99.90
52016;DHT22;38032;53.326;6.472;2024-03-17T10:57:47;10.70;99.90
52016;DHT22;38032;53.326;6.472;2024-03-17T11:00:14;10.70;99.90
52016;DHT22;38032;53.326;6.472;2024-03-17T11:02:44;10.70;99.90
52016;DHT22;38032;53.326;6.472;2024-03-17T11:05:18;10.70;99.90
52016;DHT22;38032;53.326;6.472;2024-03-17T11:07:46;10.70;99.90
52016;DHT22;38032;53.326;6.472;2024-03-17T11:10:20;10.80;99.90
52016;DHT22;38032;53.326;6.472;2024-03-17T11:12:55;10.80;99.90
52016;DHT22;38032;53.326;6.472;2024-03-17T11:17:53;11.00;99.90
52016;DHT22;38032;53.326;6.472;2024-03-17T11:20:26;11.00;99.90
52016;DHT22;38032;53.326;6.472;2024-03-17T11:22:56;11.10;99.90
52016;DHT22;38032;53.326;6.472;2024-03-17T11:27:53;11.20;99.90
52016;DHT22;38032;53.326;6.472;2024-03-17T11:39:02;11.50;99.90
52016;DHT22;38032;53.326;6.472;2024-03-17T11:49:23;11.80;99.90
52016;DHT22;38032;53.326;6.472;2024-03-17T11:51:51;11.90;99.90
52016;DHT22;38032;53.326;6.472;2024-03-17T11:54:19;12.00;99.90
52016;DHT22;38032;53.326;6.472;2024-03-17T11:56:47;12.10;99.90
52016;DHT22;38032;53.326;6.472;2024-03-17T11:59:13;12.10;99.90
52016;DHT22;38032;53.326;6.472;2024-03-17T12:01:40;12.20;99.90
52016;DHT22;38032;53.326;6.472;2024-03-17T12:04:07;12.20;99.90
52016;DHT22;38032;53.326;6.472;2024-03-17T12:06:33;12.30;99.90
52016;DHT22;38032;53.326;6.472;2024-03-17T12:09:19;12.40;99.90
52016;DHT22;38032;53.326;6.472;2024-03-17T12:11:49;12.40;99.90
52016;DHT22;38032;53.326;6.472;2024-03-17T12:14:19;12.50;99.90
52016;DHT22;38032;53.326;6.472;2024-03-17T12:16:52;12.60;99.90
52016;DHT22;38032;53.326;6.472;2024-03-17T12:19:18;12.70;99.90
52016;DHT22;38032;53.326;6.472;2024-03-17T12:21:47;12.80;99.90
52016;DHT22;38032;53.326;6.472;2024-03-17T12:24:17;12.90;99.90
52016;DHT22;38032;53.326;6.472;2024-03-17T12:26:44;13.00;99.90
52016;DHT22;38032;53.326;6.472;2024-03-17T12:29:36;13.10;99.90
52016;DHT22;38032;53.326;6.472;2024-03-17T12:32:05;13.30;99.90
52016;DHT22;38032;53.326;6.472;2024-03-17T12:34:32;13.40;99.90
52016;DHT22;38032;53.326;6.472;2024-03-17T12:37:00;13.50;99.90
52016;DHT22;38032;53.326;6.472;2024-03-17T12:39:28;13.50;99.90
52016;DHT22;38032;53.326;6.472;2024-03-17T12:42:05;13.60;99.90
52016;DHT22;38032;53.326;6.472;2024-03-17T12:44:35;13.60;99.90
52016;DHT22;38032;53.326;6.472;2024-03-17T12:47:02;13.50;99.90
52016;DHT22;38032;53.326;6.472;2024-03-17T12:49:30;13.50;99.90
52016;DHT22;38032;53.326;6.472;2024-03-17T12:51:56;13.50;99.90
52016;DHT22;38032;53.326;6.472;2024-03-17T12:54:24;13.50;99.90
52016;DHT22;38032;53.326;6.472;2024-03-17T12:57:02;13.60;99.90
52016;DHT22;38032;53.326;6.472;2024-03-17T12:59:47;13.70;99.50
52016;DHT22;38032;53.326;6.472;2024-03-17T13:02:42;13.80;99.50
52016;DHT22;38032;53.326;6.472;2024-03-17T13:05:17;13.90;99.70
52016;DHT22;38032;53.326;6.472;2024-03-17T13:07:43;13.90;99.00
52016;DHT22;38032;53.326;6.472;2024-03-17T13:10:14;13.90;99.00
52016;DHT22;38032;53.326;6.472;2024-03-17T13:12:40;13.90;99.30
52016;DHT22;38032;53.326;6.472;2024-03-17T13:15:09;13.80;98.70
52016;DHT22;38032;53.326;6.472;2024-03-17T13:17:36;13.80;97.90
52016;DHT22;38032;53.326;6.472;2024-03-17T13:20:03;13.70;97.80
52016;DHT22;38032;53.326;6.472;2024-03-17T13:22:32;13.60;97.70
52016;DHT22;38032;53.326;6.472;2024-03-17T13:24:58;13.60;97.80
52016;DHT22;38032;53.326;6.472;2024-03-17T13:27:23;13.40;97.60
52016;DHT22;38032;53.326;6.472;2024-03-17T13:29:49;13.40;97.50
52016;DHT22;38032;53.326;6.472;2024-03-17T13:32:15;13.30;97.60
52016;DHT22;38032;53.326;6.472;2024-03-17T13:34:43;13.20;97.60
52016;DHT22;38032;53.326;6.472;2024-03-17T13:37:09;13.20;97.40
52016;DHT22;38032;53.326;6.472;2024-03-17T13:39:35;13.10;97.90
52016;DHT22;38032;53.326;6.472;2024-03-17T13:42:01;13.10;98.40
52016;DHT22;38032;53.326;6.472;2024-03-17T13:44:33;13.00;98.40
52016;DHT22;38032;53.326;6.472;2024-03-17T13:46:59;13.00;98.60
52016;DHT22;38032;53.326;6.472;2024-03-17T13:49:27;13.00;98.60
52016;DHT22;38032;53.326;6.472;2024-03-17T13:51:54;13.00;98.80
52016;DHT22;38032;53.326;6.472;2024-03-17T13:54:20;12.90;98.90
52016;DHT22;38032;53.326;6.472;2024-03-17T13:56:48;12.90;98.80
52016;DHT22;38032;53.326;6.472;2024-03-17T13:59:14;12.90;98.80
52016;DHT22;38032;53.326;6.472;2024-03-17T14:01:42;12.80;98.90
52016;DHT22;38032;53.326;6.472;2024-03-17T14:04:14;12.80;99.20
52016;DHT22;38032;53.326;6.472;2024-03-17T14:06:43;12.80;99.20
52016;DHT22;38032;53.326;6.472;2024-03-17T14:09:10;12.70;99.30
52016;DHT22;38032;53.326;6.472;2024-03-17T14:11:36;12.70;99.20
52016;DHT22;38032;53.326;6.472;2024-03-17T14:14:02;12.70;99.40
52016;DHT22;38032;53.326;6.472;2024-03-17T14:16:31;12.70;99.50
52016;DHT22;38032;53.326;6.472;2024-03-17T14:18:58;12.60;99.20
52016;DHT22;38032;53.326;6.472;2024-03-17T14:21:26;12.60;99.00
52016;DHT22;38032;53.326;6.472;2024-03-17T14:23:52;12.60;99.50
52016;DHT22;38032;53.326;6.472;2024-03-17T14:26:18;12.60;99.40
52016;DHT22;38032;53.326;6.472;2024-03-17T14:28:44;12.70;99.60
52016;DHT22;38032;53.326;6.472;2024-03-17T14:31:10;12.70;99.80
52016;DHT22;38032;53.326;6.472;2024-03-17T14:33:37;12.70;99.70
52016;DHT22;38032;53.326;6.472;2024-03-17T14:36:03;12.70;99.60
52016;DHT22;38032;53.326;6.472;2024-03-17T14:38:29;12.70;99.50
52016;DHT22;38032;53.326;6.472;2024-03-17T14:40:55;12.60;99.60
52016;DHT22;38032;53.326;6.472;2024-03-17T14:43:21;12.60;99.50
52016;DHT22;38032;53.326;6.472;2024-03-17T14:45:48;12.60;99.60
52016;DHT22;38032;53.326;6.472;2024-03-17T14:48:14;12.60;99.80
52016;DHT22;38032;53.326;6.472;2024-03-17T14:50:40;12.50;99.90
52016;DHT22;38032;53.326;6.472;2024-03-17T14:53:06;12.50;99.80
52016;DHT22;38032;53.326;6.472;2024-03-17T14:55:32;12.50;99.70
52016;DHT22;38032;53.326;6.472;2024-03-17T14:57:59;12.50;99.70
52016;DHT22;38032;53.326;6.472;2024-03-17T15:00:28;12.40;99.60
52016;DHT22;38032;53.326;6.472;2024-03-17T15:02:56;12.40;99.60
52016;DHT22;38032;53.326;6.472;2024-03-17T15:05:22;12.40;99.50
52016;DHT22;38032;53.326;6.472;2024-03-17T15:07:50;12.30;99.40
52016;DHT22;38032;53.326;6.472;2024-03-17T15:10:16;12.30;99.20
52016;DHT22;38032;53.326;6.472;2024-03-17T15:12:47;12.30;98.90
52016;DHT22;38032;53.326;6.472;2024-03-17T15:15:14;12.30;99.00
52016;DHT22;38032;53.326;6.472;2024-03-17T15:17:39;12.30;99.00
52016;DHT22;38032;53.326;6.472;2024-03-17T15:20:06;12.20;99.10
52016;DHT22;38032;53.326;6.472;2024-03-17T15:22:46;12.20;99.30
52016;DHT22;38032;53.326;6.472;2024-03-17T15:25:13;12.20;99.30
52016;DHT22;38032;53.326;6.472;2024-03-17T15:27:42;12.20;99.40
52016;DHT22;38032;53.326;6.472;2024-03-17T15:30:13;12.20;99.10
52016;DHT22;38032;53.326;6.472;2024-03-17T15:32:41;12.20;99.20
52016;DHT22;38032;53.326;6.472;2024-03-17T15:35:10;12.20;99.40
52016;DHT22;38032;53.326;6.472;2024-03-17T15:37:36;12.10;99.50
52016;DHT22;38032;53.326;6.472;2024-03-17T15:40:02;12.10;99.40
52016;DHT22;38032;53.326;6.472;2024-03-17T15:42:28;12.10;99.40
52016;DHT22;38032;53.326;6.472;2024-03-17T15:44:54;12.10;99.40
52016;DHT22;38032;53.326;6.472;2024-03-17T15:47:20;12.10;99.30
52016;DHT22;38032;53.326;6.472;2024-03-17T15:49:46;12.10;99.50
52016;DHT22;38032;53.326;6.472;2024-03-17T15:52:12;12.00;99.50
52016;DHT22;38032;53.326;6.472;2024-03-17T15:54:37;12.00;99.50
52016;DHT22;38032;53.326;6.472;2024-03-17T15:57:03;12.00;99.50
52016;DHT22;38032;53.326;6.472;2024-03-17T15:59:29;12.00;99.50
52016;DHT22;38032;53.326;6.472;2024-03-17T16:01:55;12.00;99.60
52016;DHT22;38032;53.326;6.472;2024-03-17T16:04:22;11.90;99.60
52016;DHT22;38032;53.326;6.472;2024-03-17T16:06:51;11.90;99.50
52016;DHT22;38032;53.326;6.472;2024-03-17T16:09:18;11.90;99.70
52016;DHT22;38032;53.326;6.472;2024-03-17T16:11:45;11.90;99.50